Time;durP1;ratioP1;P1;durP2;ratioP2;P2;SDS_P1;SDS_P2;PMS_P1;PMS_P2;Temp;Humidity;BMP_temperature;BMP_pressure;BME280_temperature;BME280_humidity;BME280_pressure;Samples;Min_cycle;Max_cycle;Signal;HPM_P1;HPM_P2
2024/01/24 00:01:08;;;;;;;4.53;0.60;;;;;;;;;;5078950;28;20031;-78
2024/01/24 00:03:34;;;;;;;4.43;0.60;;;;;;;;;;5075367;28;20032;-78
2024/01/24 00:06:00;;;;;;;1.75;0.55;;;;;;;;;;5068753;28;20446;-77
2024/01/24 00:08:26;;;;;;;3.22;0.40;;;;;;;;;;5074553;28;20096;-78
2024/01/24 00:10:52;;;;;;;4.88;0.52;;;;;;;;;;5082149;28;20066;-79
2024/01/24 00:13:18;;;;;;;2.80;0.63;;;;;;;;;;5060092;28;20032;-78
2024/01/24 00:15:44;;;;;;;4.32;0.60;;;;;;;;;;5075744;28;20031;-77
2024/01/24 00:18:10;;;;;;;7.40;1.10;;;;;;;;;;5076273;28;20051;-78
2024/01/24 00:20:36;;;;;;;3.67;0.50;;;;;;;;;;5073194;28;20043;-77
2024/01/24 00:23:02;;;;;;;3.90;0.50;;;;;;;;;;5077594;28;20070;-77
2024/01/24 00:25:28;;;;;;;5.20;0.80;;;;;;;;;;5081018;28;20031;-77
2024/01/24 00:27:54;;;;;;;2.83;0.35;;;;;;;;;;5078289;28;20039;-78
2024/01/24 00:30:20;;;;;;;1.38;0.60;;;;;;;;;;5074241;28;20071;-78
2024/01/24 00:32:46;;;;;;;5.97;0.85;;;;;;;;;;5079119;28;21220;-78
2024/01/24 00:35:12;;;;;;;3.72;0.75;;;;;;;;;;5083745;28;20081;-78
2024/01/24 00:37:38;;;;;;;13.85;4.78;;;;;;;;;;5081999;28;20508;-78
2024/01/24 00:40:04;;;;;;;7.45;1.55;;;;;;;;;;5071827;28;20389;-79
2024/01/24 00:42:30;;;;;;;1.35;0.68;;;;;;;;;;5080155;28;20089;-78
2024/01/24 00:44:56;;;;;;;6.00;1.08;;;;;;;;;;5083993;28;20027;-79
2024/01/24 00:47:22;;;;;;;6.40;0.98;;;;;;;;;;5081093;28;20028;-78
2024/01/24 00:49:48;;;;;;;5.47;0.73;;;;;;;;;;5079982;28;20028;-79
2024/01/24 00:52:14;;;;;;;2.20;0.70;;;;;;;;;;5080347;28;21465;-78
2024/01/24 00:54:40;;;;;;;8.68;0.80;;;;;;;;;;5087522;28;20114;-78
2024/01/24 00:57:06;;;;;;;7.97;0.85;;;;;;;;;;5091171;28;20032;-75
2024/01/24 00:59:32;;;;;;;2.95;0.47;;;;;;;;;;5090037;28;20028;-78
2024/01/24 01:01:57;;;;;;;1.35;0.70;;;;;;;;;;5075193;28;20475;-80
2024/01/24 01:04:23;;;;;;;2.42;0.47;;;;;;;;;;5084957;28;20468;-80
2024/01/24 01:06:50;;;;;;;3.17;0.63;;;;;;;;;;5080073;28;20412;-79
2024/01/24 01:09:16;;;;;;;4.75;0.65;;;;;;;;;;5080233;28;20111;-78
2024/01/24 01:11:41;;;;;;;4.75;0.60;;;;;;;;;;5081015;28;20111;-78
2024/01/24 01:14:08;;;;;;;3.08;0.30;;;;;;;;;;5077965;28;20054;-79
2024/01/24 01:16:34;;;;;;;4.38;0.75;;;;;;;;;;5075029;28;20044;-80
2024/01/24 01:19:00;;;;;;;3.00;0.47;;;;;;;;;;5083505;28;20071;-78
2024/01/24 01:21:26;;;;;;;5.60;0.65;;;;;;;;;;5084906;28;20020;-79
2024/01/24 01:23:52;;;;;;;0.90;0.75;;;;;;;;;;5079674;28;20040;-78
2024/01/24 01:26:18;;;;;;;5.13;0.50;;;;;;;;;;5079140;28;20024;-78
2024/01/24 01:28:44;;;;;;;0.93;0.68;;;;;;;;;;5078523;28;20028;-78
2024/01/24 01:31:10;;;;;;;6.53;0.80;;;;;;;;;;5076710;28;20545;-78
2024/01/24 01:33:36;;;;;;;4.07;0.45;;;;;;;;;;5082163;28;20042;-77
2024/01/24 01:36:02;;;;;;;0.40;0.20;;;;;;;;;;5080007;28;20991;-78
2024/01/24 01:38:28;;;;;;;4.03;1.00;;;;;;;;;;5078626;28;20055;-78
2024/01/24 01:40:54;;;;;;;2.05;0.70;;;;;;;;;;5085078;28;20060;-76
2024/01/24 01:43:20;;;;;;;4.22;0.68;;;;;;;;;;5079099;28;20051;-76
2024/01/24 01:45:47;;;;;;;3.53;0.52;;;;;;;;;;5077399;28;20016;-77
2024/01/24 01:48:14;;;;;;;5.88;1.25;;;;;;;;;;5066891;28;20024;-76
2024/01/24 01:50:40;;;;;;;3.65;0.50;;;;;;;;;;5076547;28;20028;-76
2024/01/24 01:53:07;;;;;;;2.55;0.55;;;;;;;;;;5078956;28;20032;-77
2024/01/24 01:55:33;;;;;;;6.57;0.75;;;9.70;99.90;;;;;;5080034;28;20512;-77
2024/01/24 01:58:00;;;;;;;4.20;0.52;;;;;;;;;;5076720;28;20049;-75
2024/01/24 02:00:27;;;;;;;3.42;0.77;;;8.50;99.90;;;;;;5078496;28;20031;-78
2024/01/24 02:02:53;;;;;;;3.50;0.70;;;;;;;;;;5078749;28;20507;-76
2024/01/24 02:05:19;;;;;;;8.68;1.02;;;;;;;;;;5081861;28;20055;-77
2024/01/24 02:07:45;;;;;;;0.88;0.80;;;;;;;;;;5077700;28;20127;-78
2024/01/24 02:10:12;;;;;;;3.10;0.40;;;;;;;;;;5071687;28;20062;-78
2024/01/24 02:12:38;;;;;;;2.50;0.63;;;;;;;;;;5075278;28;20058;-79
2024/01/24 02:15:04;;;;;;;0.95;0.22;;;;;;;;;;5082834;28;20036;-79
2024/01/24 02:17:30;;;;;;;1.27;0.52;;;;;;;;;;5080110;28;20024;-78
2024/01/24 02:19:56;;;;;;;6.63;0.40;;;;;;;;;;5082991;28;20020;-79
2024/01/24 02:22:22;;;;;;;0.85;0.40;;;;;;;;;;5074912;28;20127;-78
2024/01/24 02:24:48;;;;;;;2.67;0.47;;;;;;;;;;5078200;28;20020;-79
2024/01/24 02:27:14;;;;;;;2.83;0.70;;;;;;;;;;5081488;28;20036;-79
2024/01/24 02:29:40;;;;;;;3.95;0.40;;;;;;;;;;5080414;28;20108;-79
2024/01/24 02:32:06;;;;;;;0.93;0.30;;;;;;;;;;5072838;28;20024;-78
2024/01/24 02:34:32;;;;;;;3.70;0.75;;;;;;;;;;5082712;28;20020;-79
2024/01/24 02:36:58;;;;;;;5.22;0.90;;;;;;;;;;5076236;28;20496;-79
2024/01/24 02:39:24;;;;;;;3.03;0.70;;;;;;;;;;5061875;28;20105;-79
2024/01/24 02:41:51;;;;;;;5.15;0.50;;;;;;;;;;5079396;28;20145;-79
2024/01/24 02:44:17;;;;;;;3.30;0.40;;;;;;;;;;5078509;28;20514;-78
2024/01/24 02:46:43;;;;;;;4.30;0.88;;;;;;;;;;5081634;28;20030;-77
2024/01/24 02:49:09;;;;;;;3.38;0.47;;;;;;;;;;5080502;28;20110;-79
2024/01/24 02:51:34;;;;;;;2.88;0.57;;;;;;;;;;5075960;28;20335;-78
2024/01/24 02:54:01;;;;;;;0.75;0.43;;;;;;;;;;5084042;28;20524;-77
2024/01/24 02:56:27;;;;;;;2.85;0.30;;;;;;;;;;5082173;28;20016;-77
2024/01/24 02:58:53;;;;;;;4.13;0.50;;;;;;;;;;5084304;28;20038;-77
2024/01/24 03:01:19;;;;;;;5.72;0.63;;;;;;;;;;5084918;28;20023;-79
2024/01/24 03:03:45;;;;;;;1.92;0.40;;;;;;;;;;5074810;28;20060;-77
2024/01/24 03:06:11;;;;;;;6.07;0.40;;;;;;;;;;5078494;28;20032;-79
2024/01/24 03:08:47;;;;;;;6.00;0.65;;;;;;;;;;5079864;28;20052;-77
2024/01/24 03:11:13;;;;;;;4.30;0.88;;;;;;;;;;5081694;28;20028;-78
2024/01/24 03:13:38;;;;;;;0.50;0.25;;;;;;;;;;5077604;28;20028;-78
2024/01/24 03:16:05;;;;;;;2.28;0.50;;;;;;;;;;5081905;28;20043;-78
2024/01/24 03:18:30;;;;;;;2.30;0.60;;;;;;;;;;5080296;28;20024;-78
2024/01/24 03:20:56;;;;;;;2.60;0.32;;;;;;;;;;5078333;28;20035;-77
2024/01/24 03:23:24;;;;;;;2.15;0.70;;;;;;;;;;5077319;28;20012;-78
2024/01/24 03:25:50;;;;;;;5.35;0.82;;;;;;;;;;5083461;28;20024;-78
2024/01/24 03:28:16;;;;;;;0.98;0.43;;;;;;;;;;5073626;28;20028;-77
2024/01/24 03:30:42;;;;;;;5.10;0.85;;;;;;;;;;5081392;28;20032;-78
2024/01/24 03:33:08;;;;;;;4.60;0.40;;;;;;;;;;5059253;28;20036;-77
2024/01/24 03:35:34;;;;;;;1.65;0.35;;;;;;;;;;5073936;28;20025;-78
2024/01/24 03:38:00;;;;;;;0.35;0.13;;;;;;;;;;5070711;28;20052;-78
2024/01/24 03:40:26;;;;;;;6.20;0.63;;;;;;;;;;5072371;28;20024;-78
2024/01/24 03:42:52;;;;;;;3.80;0.47;;;;;;;;;;5076450;28;20036;-79
2024/01/24 03:45:18;;;;;;;4.28;0.40;;;;;;;;;;5062841;28;20037;-77
2024/01/24 03:47:45;;;;;;;2.38;0.68;;;;;;;;;;5081494;28;20032;-77
2024/01/24 03:50:11;;;;;;;2.28;0.60;;;;;;;;;;5082030;28;20041;-77
2024/01/24 03:52:37;;;;;;;9.02;0.70;;;;;;;;;;5075877;28;20032;-78
2024/01/24 03:55:03;;;;;;;1.58;0.57;;;;;;;;;;5082189;28;20028;-79
2024/01/24 03:57:29;;;;;;;3.97;0.75;;;;;;;;;;5063445;28;20032;-77
2024/01/24 03:59:55;;;;;;;8.38;0.70;;;;;;;;;;5083530;28;21271;-78
2024/01/24 04:02:21;;;;;;;3.38;0.55;;;;;;;;;;5083154;28;20139;-78
2024/01/24 04:04:47;;;;;;;1.75;0.45;;;;;;;;;;5085988;28;20097;-79
2024/01/24 04:07:13;;;;;;;6.75;0.60;;;;;;;;;;5085567;28;20051;-77
2024/01/24 04:09:39;;;;;;;1.95;0.68;;;;;;;;;;5099534;28;20028;-77
2024/01/24 04:12:05;;;;;;;1.48;0.82;;;;;;;;;;5083661;28;20041;-79
2024/01/24 04:14:31;;;;;;;3.38;0.30;;;;;;;;;;5071403;28;20033;-78
2024/01/24 04:16:58;;;;;;;5.53;0.82;;;;;;;;;;5082378;28;20020;-78
2024/01/24 04:19:24;;;;;;;4.78;1.98;;;;;;;;;;5087737;28;20105;-77
2024/01/24 04:21:50;;;;;;;5.25;0.75;;;;;;;;;;5082124;28;20082;-76
2024/01/24 04:24:16;;;;;;;6.68;0.75;;;;;;;;;;5077053;28;20407;-78
2024/01/24 04:26:42;;;;;;;2.35;0.40;;;;;;;;;;5079023;28;20024;-77
2024/01/24 04:29:08;;;;;;;2.35;0.35;;;;;;;;;;5071663;28;20880;-78
2024/01/24 04:31:34;;;;;;;3.85;0.38;;;;;;;;;;5081270;28;20028;-78
2024/01/24 04:34:00;;;;;;;7.60;0.60;;;;;;;;;;5073811;28;20050;-78
2024/01/24 04:36:26;;;;;;;2.17;0.43;;;;;;;;;;5084964;28;20024;-79
2024/01/24 04:38:52;;;;;;;0.55;0.40;;;;;;;;;;5076660;28;20403;-79
2024/01/24 04:41:18;;;;;;;3.50;0.60;;;;;;;;;;5085764;28;20621;-78
2024/01/24 04:43:44;;;;;;;1.45;0.20;;;;;;;;;;5075488;28;20503;-77
2024/01/24 04:46:16;;;;;;;2.67;0.60;;;;;;;;;;5086405;28;20053;-77
2024/01/24 04:48:43;;;;;;;2.47;0.90;;;;;;;;;;5073628;28;20115;-78
2024/01/24 04:51:10;;;;;;;1.17;0.30;;;;;;;;;;5086326;28;20032;-77
2024/01/24 04:53:37;;;;;;;1.75;0.40;;;;;;;;;;5079994;28;20028;-77
2024/01/24 04:56:03;;;;;;;2.97;0.25;;;;;;;;;;5081848;28;20387;-79
2024/01/24 04:58:29;;;;;;;0.82;0.40;;;;;;;;;;5081709;28;20535;-79
2024/01/24 05:00:55;;;;;;;4.82;0.40;;;;;;;;;;5076203;28;20484;-79
2024/01/24 05:03:21;;;;;;;4.85;0.32;;;;;;;;;;5070188;28;20029;-78
2024/01/24 05:05:47;;;;;;;7.80;0.70;;;;;;;;;;5083510;28;20032;-79
2024/01/24 05:08:13;;;;;;;2.50;0.90;;;;;;;;;;5069389;28;20077;-78
2024/01/24 05:10:39;;;;;;;0.55;0.35;;;;;;;;;;5080277;28;20039;-78
2024/01/24 05:13:05;;;;;;;3.20;0.40;;;;;;;;;;5085330;28;20032;-77
2024/01/24 05:15:31;;;;;;;2.92;0.52;;;;;;;;;;5081702;28;20047;-77
2024/01/24 05:17:57;;;;;;;4.93;0.40;;;;;;;;;;5085275;28;20096;-77
2024/01/24 05:20:23;;;;;;;1.67;0.40;;;;;;;;;;5080258;28;20124;-79
2024/01/24 05:22:49;;;;;;;2.40;0.43;;;;;;;;;;5080268;28;20419;-77
2024/01/24 05:25:15;;;;;;;4.30;0.50;;;;;;;;;;5079256;28;20032;-78
2024/01/24 05:27:41;;;;;;;6.45;0.50;;;;;;;;;;5076102;28;20032;-77
2024/01/24 05:30:07;;;;;;;11.15;0.55;;;;;;;;;;5070550;28;20126;-76
2024/01/24 05:32:33;;;;;;;2.92;0.43;;;;;;;;;;5084276;28;20081;-77
2024/01/24 05:34:59;;;;;;;8.57;2.17;;;;;;;;;;5082015;28;20035;-76
2024/01/24 05:37:25;;;;;;;1.65;0.40;;;;;;;;;;5082998;28;20031;-77
2024/01/24 05:39:51;;;;;;;0.95;0.38;;;;;;;;;;5081794;28;20791;-77
2024/01/24 05:42:17;;;;;;;0.90;0.52;;;;;;;;;;5083133;28;20767;-76
2024/01/24 05:44:43;;;;;;;2.38;0.47;;;;;;;;;;5083173;28;20072;-76
2024/01/24 05:47:09;;;;;;;0.70;0.20;;;;;;;;;;5075364;28;20020;-77
2024/01/24 05:49:36;;;;;;;1.17;0.30;;;11.20;99.90;;;;;;5072475;28;20039;-76
2024/01/24 05:52:03;;;;;;;1.88;0.32;;;;;;;;;;5079110;28;20028;-76
2024/01/24 05:54:29;;;;;;;1.23;0.47;;;;;;;;;;5079749;28;20461;-77
2024/01/24 05:56:55;;;;;;;1.10;0.38;;;;;;;;;;5078438;28;20135;-76
2024/01/24 05:59:21;;;;;;;2.90;0.65;;;;;;;;;;5082708;28;20060;-76
2024/01/24 06:01:47;;;;;;;1.10;0.55;;;;;;;;;;5078160;28;20090;-77
2024/01/24 06:04:14;;;;;;;0.45;0.13;;;;;;;;;;5084713;28;20039;-77
2024/01/24 06:06:40;;;;;;;0.85;0.30;;;;;;;;;;5074464;28;20032;-76
2024/01/24 06:09:06;;;;;;;0.70;0.20;;;;;;;;;;5078087;28;20024;-77
2024/01/24 06:11:32;;;;;;;0.30;0.10;;;;;;;;;;5083106;28;20210;-77
2024/01/24 06:13:58;;;;;;;3.13;0.63;;;;;;;;;;5085477;28;20055;-77
2024/01/24 06:16:24;;;;;;;0.47;0.22;;;;;;;;;;5083547;28;20396;-76
2024/01/24 06:18:50;;;;;;;4.57;1.52;;;;;;;;;;5074572;28;20404;-78
2024/01/24 06:21:16;;;;;;;1.08;0.40;;;;;;;;;;5079382;28;20512;-77
2024/01/24 06:23:42;;;;;;;5.90;0.50;;;;;;;;;;5078544;28;20673;-76
2024/01/24 06:26:07;;;;;;;1.85;0.40;;;;;;;;;;5078906;28;20054;-77
2024/01/24 06:28:33;;;;;;;1.98;0.30;;;;;;;;;;5078221;28;20107;-76
2024/01/24 06:30:59;;;;;;;0.47;0.30;;;;;;;;;;5077454;28;20039;-76
2024/01/24 06:33:26;;;;;;;0.17;0.13;;;;;;;;;;5078971;28;20024;-76
2024/01/24 06:35:52;;;;;;;5.35;0.30;;;;;;;;;;5069748;28;20123;-77
2024/01/24 06:38:17;;;;;;;4.13;0.20;;;;;;;;;;5080785;28;20111;-77
2024/01/24 06:40:43;;;;;;;2.20;0.60;;;;;;;;;;5084561;28;20035;-77
2024/01/24 06:43:11;;;;;;;5.45;0.50;;;;;;;;;;5074710;28;20027;-76
2024/01/24 06:45:37;;;;;;;0.95;0.30;;;;;;;;;;5082256;28;20417;-76
2024/01/24 06:48:03;;;;;;;0.30;0.20;;;;;;;;;;5076945;28;20031;-77
2024/01/24 06:50:31;;;;;;;5.78;0.45;;;;;;;;;;5088135;28;20054;-76
2024/01/24 06:52:57;;;;;;;0.45;0.17;;;;;;;;;;5079542;28;20035;-76
2024/01/24 06:55:24;;;;;;;1.15;0.40;;;;;;;;;;5083702;28;20024;-76
2024/01/24 06:57:49;;;;;;;1.95;0.32;;;;;;;;;;5093620;28;20507;-75
2024/01/24 07:00:16;;;;;;;0.20;0.10;;;;;;;;;;5087532;28;20043;-76
2024/01/24 07:02:42;;;;;;;0.90;0.30;;;;;;;;;;5071653;28;20062;-74
2024/01/24 07:05:08;;;;;;;1.95;0.30;;;;;;;;;;5085996;28;20064;-75
2024/01/24 07:07:34;;;;;;;1.52;0.32;;;;;;;;;;5080381;28;20020;-76
2024/01/24 07:10:00;;;;;;;1.40;0.30;;;;;;;;;;5069975;28;20020;-75
2024/01/24 07:12:26;;;;;;;0.45;0.22;;;;;;;;;;5081420;28;20028;-75
2024/01/24 07:14:52;;;;;;;1.33;0.50;;;;;;;;;;5081449;28;20040;-75
2024/01/24 07:17:18;;;;;;;4.43;0.70;;;;;;;;;;5081973;28;20057;-75
2024/01/24 07:19:44;;;;;;;0.28;0.25;;;;;;;;;;5089248;28;20048;-75
2024/01/24 07:22:10;;;;;;;1.13;0.30;;;;;;;;;;5095468;28;20036;-75
2024/01/24 07:24:36;;;;;;;2.45;0.20;;;;;;;;;;5084472;28;20391;-77
2024/01/24 07:27:02;;;;;;;2.13;0.40;;;;;;;;;;5078054;28;20035;-75
2024/01/24 07:29:28;;;;;;;1.80;0.20;;;;;;;;;;5075389;28;20025;-75
2024/01/24 07:31:54;;;;;;;0.77;0.10;;;;;;;;;;5084355;28;20028;-75
2024/01/24 07:34:20;;;;;;;2.92;0.30;;;;;;;;;;5090967;28;20039;-75
2024/01/24 07:36:46;;;;;;;0.10;0.10;;;;;;;;;;5072488;28;20035;-76
2024/01/24 07:39:12;;;;;;;0.60;0.20;;;;;;;;;;5080521;28;20100;-75
2024/01/24 07:41:38;;;;;;;2.28;0.15;;;;;;;;;;5082069;28;20185;-76
2024/01/24 07:44:04;;;;;;;0.30;0.10;;;;;;;;;;5067418;28;20101;-77
2024/01/24 07:46:32;;;;;;;1.42;0.30;;;;;;;;;;5086462;28;20020;-77
2024/01/24 07:48:58;;;;;;;0.68;0.10;;;;;;;;;;5091591;28;20368;-78
2024/01/24 07:51:24;;;;;;;0.05;0.05;;;;;;;;;;5089138;28;20307;-77
2024/01/24 07:53:50;;;;;;;0.30;0.10;;;;;;;;;;5084549;28;20024;-77
2024/01/24 07:56:16;;;;;;;2.22;0.10;;;;;;;;;;5089555;28;20036;-77
2024/01/24 07:58:42;;;;;;;0.10;0.10;;;;;;;;;;5076066;28;20115;-78
2024/01/24 08:01:10;;;;;;;0.30;0.15;;;;;;;;;;5087668;28;20491;-76
2024/01/24 08:03:37;;;;;;;0.70;0.20;;;;;;;;;;5092427;28;20063;-77
2024/01/24 08:06:04;;;;;;;0.35;0.15;;;;;;;;;;5088339;28;20024;-77
2024/01/24 08:08:29;;;;;;;0.43;0.43;;;;;;;;;;5084314;28;20115;-78
2024/01/24 08:10:55;;;;;;;0.47;0.10;;;;;;;;;;5090844;28;20169;-78
2024/01/24 08:13:21;;;;;;;0.65;0.20;;;;;;;;;;5082591;28;20024;-78
2024/01/24 08:15:47;;;;;;;0.52;0.10;;;;;;;;;;5086567;28;20035;-77
2024/01/24 08:18:14;;;;;;;0.20;0.20;;;;;;;;;;5090408;28;20028;-77
2024/01/24 08:20:40;;;;;;;0.30;0.20;;;;;;;;;;5083301;28;20060;-77
2024/01/24 08:23:06;;;;;;;0.10;0.10;;;;;;;;;;5083440;28;20093;-77
2024/01/24 08:25:32;;;;;;;0.43;0.10;;;;;;;;;;5080409;28;20040;-78
2024/01/24 08:27:58;;;;;;;3.67;0.20;;;;;;;;;;5086029;28;20028;-78
2024/01/24 08:30:24;;;;;;;0.40;0.20;;;;;;;;;;5085225;28;20027;-77
2024/01/24 08:32:51;;;;;;;0.40;0.10;;;;;;;;;;5092988;28;20057;-78
2024/01/24 08:35:17;;;;;;;0.40;0.10;;;;;;;;;;5087848;28;20024;-77
2024/01/24 08:37:43;;;;;;;0.47;0.17;;;;;;;;;;5083199;28;20399;-76
2024/01/24 08:40:10;;;;;;;1.65;0.00;;;;;;;;;;5083195;28;20028;-76
2024/01/24 08:42:36;;;;;;;0.85;0.40;;;;;;;;;;5091073;28;20031;-77
2024/01/24 08:45:02;;;;;;;0.13;0.10;;;;;;;;;;5092431;28;20117;-75
2024/01/24 08:47:28;;;;;;;0.15;0.10;;;;;;;;;;5072751;28;20039;-77
2024/01/24 08:49:56;;;;;;;0.13;0.10;;;;;;;;;;5085318;28;20038;-77
2024/01/24 08:52:22;;;;;;;0.13;0.10;;;;;;;;;;5084710;28;20154;-76
2024/01/24 08:54:48;;;;;;;0.63;0.10;;;;;;;;;;5086722;28;20028;-76
2024/01/24 08:57:14;;;;;;;0.20;0.10;;;12.10;99.90;;;;;;5084337;28;20055;-77
2024/01/24 08:59:40;;;;;;;0.17;0.10;;;;;;;;;;5087104;28;20105;-76
2024/01/24 09:02:07;;;;;;;0.43;0.10;;;12.10;99.90;;;;;;5084232;28;20024;-77
2024/01/24 09:04:33;;;;;;;0.10;0.10;;;;;;;;;;5088528;28;20107;-77
2024/01/24 09:06:59;;;;;;;0.30;0.10;;;;;;;;;;5083595;28;20028;-76
2024/01/24 09:09:25;;;;;;;0.00;0.00;;;;;;;;;;5082775;28;20108;-77
2024/01/24 09:11:51;;;;;;;1.45;0.20;;;;;;;;;;5082829;28;20950;-75
2024/01/24 09:14:17;;;;;;;0.00;0.00;;;;;;;;;;5086872;28;20086;-76
2024/01/24 09:16:43;;;;;;;0.70;0.13;;;;;;;;;;5081570;28;20101;-77
2024/01/24 09:19:09;;;;;;;0.10;0.10;;;;;;;;;;5073547;28;20047;-77
2024/01/24 09:21:36;;;;;;;0.50;0.20;;;;;;;;;;5086757;28;20051;-77
2024/01/24 09:24:03;;;;;;;2.35;1.30;;;;;;;;;;5086253;28;20036;-76
2024/01/24 09:26:30;;;;;;;0.38;0.30;;;;;;;;;;5086294;28;20024;-76
2024/01/24 09:28:56;;;;;;;0.55;0.35;;;;;;;;;;5085070;28;20074;-77
2024/01/24 09:31:22;;;;;;;0.65;0.20;;;12.40;99.90;;;;;;5087331;28;20176;-76
2024/01/24 09:33:48;;;;;;;0.15;0.10;;;;;;;;;;5083462;28;20555;-76
2024/01/24 09:36:14;;;;;;;0.40;0.20;;;;;;;;;;5085968;28;20150;-76
2024/01/24 09:38:44;;;;;;;0.73;0.17;;;;;;;;;;5079806;28;20058;-76
2024/01/24 09:41:16;;;;;;;0.20;0.10;;;12.90;99.90;;;;;;5082843;28;20607;-76
2024/01/24 09:43:43;;;;;;;0.43;0.20;;;;;;;;;;5082517;28;20043;-78
2024/01/24 09:46:13;;;;;;;0.35;0.05;;;;;;;;;;5085192;28;20027;-76
2024/01/24 09:48:39;;;;;;;0.40;0.20;;;;;;;;;;5082826;28;20119;-77
2024/01/24 09:51:05;;;;;;;0.80;0.30;;;;;;;;;;5081857;28;20399;-77
2024/01/24 09:53:32;;;;;;;0.10;0.10;;;;;;;;;;5081112;28;20110;-75
2024/01/24 09:56:00;;;;;;;2.75;0.40;;;;;;;;;;5081715;28;20040;-77
2024/01/24 09:58:26;;;;;;;1.85;0.90;;;;;;;;;;5084211;28;20063;-77
2024/01/24 10:00:52;;;;;;;0.32;0.28;;;;;;;;;;5085724;28;20047;-76
2024/01/24 10:03:18;;;;;;;0.75;0.22;;;;;;;;;;5084053;28;20032;-76
2024/01/24 10:05:45;;;;;;;1.05;0.20;;;;;;;;;;5087262;28;20040;-76
2024/01/24 10:08:11;;;;;;;2.38;0.40;;;;;;;;;;5082022;28;20469;-76
2024/01/24 10:10:37;;;;;;;0.30;0.20;;;;;;;;;;5084260;28;20027;-76
2024/01/24 10:13:04;;;;;;;0.85;0.20;;;;;;;;;;5085372;28;20220;-76
2024/01/24 10:15:30;;;;;;;0.25;0.20;;;;;;;;;;5083310;28;20107;-76
2024/01/24 10:17:56;;;;;;;0.45;0.22;;;;;;;;;;5079745;28;20037;-77
2024/01/24 10:20:22;;;;;;;0.47;0.30;;;;;;;;;;5086993;28;20070;-76
2024/01/24 10:22:50;;;;;;;1.02;0.10;;;;;;;;;;5082768;28;20038;-77
2024/01/24 10:25:17;;;;;;;0.32;0.30;;;;;;;;;;5085226;28;20032;-76
2024/01/24 10:27:43;;;;;;;0.77;0.20;;;;;;;;;;5087342;28;20403;-76
2024/01/24 10:30:10;;;;;;;1.05;0.50;;;;;;;;;;5084583;28;20054;-78
2024/01/24 10:32:37;;;;;;;0.77;0.30;;;;;;;;;;5081520;28;20036;-76
2024/01/24 10:35:06;;;;;;;0.75;0.10;;;;;;;;;;5082933;28;20043;-76
2024/01/24 10:37:33;;;;;;;0.32;0.17;;;;;;;;;;5081730;28;20032;-76
2024/01/24 10:40:11;;;;;;;0.17;0.13;;;;;;;;;;5082356;28;20024;-76
2024/01/24 10:42:39;;;;;;;0.38;0.10;;;;;;;;;;5081081;28;20099;-75
2024/01/24 10:45:06;;;;;;;0.30;0.20;;;;;;;;;;5079713;28;20203;-76
2024/01/24 10:47:32;;;;;;;1.23;0.93;;;;;;;;;;5086099;28;20059;-76
2024/01/24 10:49:59;;;;;;;0.35;0.20;;;;;;;;;;5094476;28;20035;-75
2024/01/24 10:52:26;;;;;;;1.00;0.55;;;;;;;;;;5081799;28;20059;-77
2024/01/24 10:54:53;;;;;;;4.65;0.20;;;;;;;;;;5084822;28;20034;-78
2024/01/24 10:57:19;;;;;;;0.90;0.40;;;;;;;;;;5087114;28;20384;-78
2024/01/24 10:59:47;;;;;;;0.43;0.25;;;;;;;;;;5078033;28;20048;-78
2024/01/24 11:02:13;;;;;;;0.43;0.17;;;;;;;;;;5082958;28;20028;-76
2024/01/24 11:04:39;;;;;;;2.08;0.13;;;;;;;;;;5090769;28;20063;-76
2024/01/24 11:07:08;;;;;;;1.25;0.10;;;;;;;;;;5082973;28;20032;-77
2024/01/24 11:10:01;;;;;;;0.52;0.40;;;11.90;99.90;;;;;;5080583;28;20118;-76
2024/01/24 11:12:27;;;;;;;0.73;0.25;;;;;;;;;;5087834;28;20074;-77
2024/01/24 11:15:05;;;;;;;3.17;0.57;;;;;;;;;;5086482;28;20128;-75
2024/01/24 11:17:32;;;;;;;1.00;0.30;;;;;;;;;;5075334;28;20156;-77
2024/01/24 11:19:58;;;;;;;1.15;0.20;;;;;;;;;;5077879;28;20028;-78
2024/01/24 11:22:25;;;;;;;0.52;0.20;;;;;;;;;;5084144;28;20024;-77
2024/01/24 11:24:54;;;;;;;1.45;0.10;;;;;;;;;;5085204;28;20686;-77
2024/01/24 11:27:33;;;;;;;3.20;0.20;;;;;;;;;;5080387;28;20024;-78
2024/01/24 11:30:18;;;;;;;3.13;0.57;;;;;;;;;;5083479;28;20392;-78
2024/01/24 11:32:55;;;;;;;1.35;0.20;;;;;;;;;;5082761;28;20019;-76
2024/01/24 11:35:27;;;;;;;2.80;0.28;;;;;;;;;;5086643;28;20027;-77
2024/01/24 11:37:54;;;;;;;0.10;0.10;;;;;;;;;;5084306;28;20073;-77
2024/01/24 11:40:24;;;;;;;3.58;0.30;;;;;;;;;;5073772;28;20021;-77
2024/01/24 11:42:53;;;;;;;2.53;0.40;;;;;;;;;;5080870;28;20104;-76
2024/01/24 11:45:23;;;;;;;2.65;0.20;;;;;;;;;;5089658;28;20426;-76
2024/01/24 11:47:50;;;;;;;0.52;0.52;;;;;;;;;;5081487;28;20030;-75
2024/01/24 11:50:15;;;;;;;1.50;0.17;;;13.50;99.90;;;;;;5082400;28;20047;-75
2024/01/24 11:52:42;;;;;;;7.82;0.50;;;;;;;;;;5086082;28;20074;-75
2024/01/24 11:55:09;;;;;;;0.40;0.10;;;;;;;;;;5081139;28;20032;-75
2024/01/24 11:57:35;;;;;;;1.45;0.57;;;;;;;;;;5078394;28;20336;-77
2024/01/24 12:00:02;;;;;;;4.47;0.30;;;;;;;;;;5090846;28;20066;-76
2024/01/24 12:02:28;;;;;;;0.10;0.10;;;;;;;;;;5085065;28;20059;-75
2024/01/24 12:04:54;;;;;;;2.78;0.30;;;;;;;;;;5084641;28;20500;-77
2024/01/24 12:07:20;;;;;;;1.33;0.50;;;;;;;;;;5085982;28;20365;-75
2024/01/24 12:09:47;;;;;;;1.23;0.15;;;;;;;;;;5079613;28;20073;-75
2024/01/24 12:12:13;;;;;;;0.73;0.13;;;;;;;;;;5084990;28;20042;-76
2024/01/24 12:14:40;;;;;;;0.45;0.20;;;;;;;;;;5080908;28;20500;-76
2024/01/24 12:17:10;;;;;;;1.65;0.22;;;;;;;;;;5080522;28;20034;-74
2024/01/24 12:19:36;;;;;;;4.68;0.10;;;;;;;;;;5075967;28;20591;-76
2024/01/24 12:22:08;;;;;;;1.88;0.60;;;;;;;;;;5075028;28;20550;-76
2024/01/24 12:24:37;;;;;;;0.28;0.10;;;;;;;;;;5088418;28;20451;-75
2024/01/24 12:27:03;;;;;;;2.65;0.20;;;;;;;;;;5081854;28;20481;-76
2024/01/24 12:29:29;;;;;;;0.43;0.20;;;;;;;;;;5086079;28;20042;-76
2024/01/24 12:31:55;;;;;;;0.38;0.10;;;;;;;;;;5079738;28;20032;-76
2024/01/24 12:34:21;;;;;;;2.03;0.20;;;;;;;;;;5087075;28;20388;-76
2024/01/24 12:36:48;;;;;;;1.25;0.20;;;;;;;;;;5079549;28;21419;-75
2024/01/24 12:39:15;;;;;;;1.65;0.17;;;;;;;;;;5079650;28;20028;-76
2024/01/24 12:41:40;;;;;;;0.60;0.20;;;;;;;;;;5074950;28;20048;-76
2024/01/24 12:44:09;;;;;;;2.35;0.55;;;;;;;;;;5088222;28;20531;-75
2024/01/24 12:46:38;;;;;;;2.58;0.30;;;;;;;;;;5080547;28;20032;-75
2024/01/24 12:49:04;;;;;;;4.63;0.40;;;;;;;;;;5082938;28;20103;-75
2024/01/24 12:51:30;;;;;;;5.78;0.45;;;;;;;;;;5087249;28;20541;-75
2024/01/24 12:53:55;;;;;;;1.13;0.10;;;;;;;;;;5079060;28;20097;-75
2024/01/24 12:56:21;;;;;;;0.28;0.10;;;;;;;;;;5090707;28;20476;-76
2024/01/24 12:58:47;;;;;;;0.52;0.28;;;;;;;;;;5085010;28;20507;-74
2024/01/24 13:01:13;;;;;;;1.38;0.20;;;;;;;;;;5089246;28;20444;-75
2024/01/24 13:03:39;;;;;;;2.15;0.30;;;;;;;;;;5080573;28;20055;-75
2024/01/24 13:06:05;;;;;;;3.10;0.40;;;;;;;;;;5083527;28;20039;-75
2024/01/24 13:08:31;;;;;;;0.95;0.20;;;;;;;;;;5077137;28;20056;-76
2024/01/24 13:10:57;;;;;;;2.00;0.30;;;;;;;;;;5081649;28;20505;-76
2024/01/24 13:13:23;;;;;;;2.15;0.70;;;;;;;;;;5083702;28;20076;-76
2024/01/24 13:15:52;;;;;;;4.65;0.70;;;;;;;;;;5088030;28;20024;-76
2024/01/24 13:18:18;;;;;;;6.93;0.55;;;;;;;;;;5074890;28;20028;-76
2024/01/24 13:20:44;;;;;;;3.78;1.30;;;;;;;;;;5086498;28;20373;-75
2024/01/24 13:23:10;;;;;;;3.47;0.50;;;;;;;;;;5083820;28;20024;-75
2024/01/24 13:25:36;;;;;;;2.65;0.20;;;;;;;;;;5081873;28;20040;-74
2024/01/24 13:28:02;;;;;;;4.95;0.50;;;;;;;;;;5083752;28;20039;-75
2024/01/24 13:30:28;;;;;;;1.88;0.30;;;;;;;;;;5094414;28;20646;-76
2024/01/24 13:32:55;;;;;;;2.08;0.50;;;;;;;;;;5084483;28;20028;-76
2024/01/24 13:35:20;;;;;;;3.72;0.55;;;;;;;;;;5089581;28;20027;-75
2024/01/24 13:37:47;;;;;;;5.30;0.85;;;;;;;;;;5083464;28;20103;-75
2024/01/24 13:40:13;;;;;;;4.65;0.65;;;;;;;;;;5081026;28;20113;-76
2024/01/24 13:42:39;;;;;;;5.32;0.52;;;;;;;;;;5082477;28;20094;-76
2024/01/24 13:45:05;;;;;;;6.90;0.68;;;;;;;;;;5087178;28;20080;-75
2024/01/24 13:47:31;;;;;;;4.13;0.38;;;;;;;;;;5086991;28;20054;-75
2024/01/24 13:49:57;;;;;;;3.75;0.55;;;;;;;;;;5095678;28;20032;-75
2024/01/24 13:52:23;;;;;;;4.35;1.08;;;;;;;;;;5099477;28;20035;-76
2024/01/24 13:54:49;;;;;;;4.70;0.82;;;;;;;;;;5101861;28;20101;-75
2024/01/24 13:57:15;;;;;;;2.55;1.20;;;;;;;;;;5098213;28;20032;-76
2024/01/24 13:59:41;;;;;;;3.20;0.90;;;;;;;;;;5104180;28;20039;-75
2024/01/24 14:02:07;;;;;;;2.17;0.55;;;;;;;;;;5097124;28;20790;-76
2024/01/24 14:04:33;;;;;;;1.00;0.47;;;;;;;;;;5074862;28;20127;-76
2024/01/24 14:06:59;;;;;;;12.90;1.00;;;;;;;;;;5094499;28;20172;-76
2024/01/24 14:09:25;;;;;;;3.50;0.63;;;;;;;;;;5102768;28;20028;-76
2024/01/24 14:11:53;;;;;;;10.75;3.80;;;;;;;;;;5098845;28;20736;-74
2024/01/24 14:14:19;;;;;;;6.43;0.80;;;;;;;;;;5104619;28;20028;-74
2024/01/24 14:16:45;;;;;;;6.72;0.40;;;;;;;;;;5098550;28;20026;-75
2024/01/24 14:19:11;;;;;;;2.10;0.68;;;;;;;;;;5078246;28;20397;-75
2024/01/24 14:21:37;;;;;;;6.50;0.57;;;;;;;;;;5090627;28;20057;-73
2024/01/24 14:24:03;;;;;;;3.75;1.02;;;;;;;;;;5082589;28;20411;-74
2024/01/24 14:26:30;;;;;;;7.53;0.82;;;12.80;99.90;;;;;;5083347;28;20042;-77
2024/01/24 14:28:57;;;;;;;7.55;0.88;;;11.70;99.90;;;;;;5094411;28;20039;-76
2024/01/24 14:31:23;;;;;;;5.90;1.15;;;;;;;;;;5091070;28;20020;-76
2024/01/24 14:33:49;;;;;;;4.45;0.98;;;;;;;;;;5084781;28;20034;-77